Time;durP1;ratioP1;P1;durP2;ratioP2;P2;SDS_P1;SDS_P2;PMS_P1;PMS_P2;Temp;Humidity;BMP_temperature;BMP_pressure;BME280_temperature;BME280_humidity;BME280_pressure;Samples;Min_cycle;Max_cycle;Signal;HPM_P1;HPM_P2
2023/09/08 00:00:51;;;;;;;0.00;0.00;;;18.10;99.90;;;;;;5050081;28;20209;-73
2023/09/08 00:03:16;;;;;;;0.00;0.00;;;18.00;99.90;;;;;;5050314;28;20184;-73
2023/09/08 00:05:42;;;;;;;0.40;0.35;;;18.00;99.90;;;;;;5050161;28;21312;-74
2023/09/08 00:08:07;;;;;;;0.00;0.00;;;18.00;99.90;;;;;;5048955;28;20177;-73
2023/09/08 00:10:33;;;;;;;0.00;0.00;;;17.90;99.90;;;;;;5050254;28;20189;-73
2023/09/08 00:12:58;;;;;;;0.00;0.00;;;17.90;99.90;;;;;;5050413;28;20178;-73
2023/09/08 00:15:24;;;;;;;0.00;0.00;;;17.90;99.90;;;;;;5050003;28;20189;-73
2023/09/08 00:17:49;;;;;;;0.00;0.00;;;17.90;99.90;;;;;;5050182;28;20185;-74
2023/09/08 00:20:15;;;;;;;0.13;0.13;;;17.90;99.90;;;;;;5050146;28;20296;-74
2023/09/08 00:22:40;;;;;;;0.00;0.00;;;17.80;99.90;;;;;;5050306;28;20260;-74
2023/09/08 00:25:06;;;;;;;0.00;0.00;;;17.80;99.90;;;;;;5049965;28;20177;-74
2023/09/08 00:27:32;;;;;;;0.00;0.00;;;17.80;99.90;;;;;;5050019;28;20182;-74
2023/09/08 00:29:58;;;;;;;0.00;0.00;;;17.80;99.90;;;;;;5052397;28;20177;-74
2023/09/08 00:32:23;;;;;;;0.00;0.00;;;17.70;99.90;;;;;;5053559;28;20228;-74
2023/09/08 00:34:49;;;;;;;0.00;0.00;;;17.80;99.90;;;;;;5053378;28;20271;-73
2023/09/08 00:37:15;;;;;;;0.00;0.00;;;17.70;99.90;;;;;;5053338;28;20205;-73
2023/09/08 00:39:40;;;;;;;0.00;0.00;;;17.70;99.90;;;;;;5052860;28;20217;-74
2023/09/08 00:42:07;;;;;;;0.00;0.00;;;17.70;99.90;;;;;;5052787;28;20216;-73
2023/09/08 00:44:32;;;;;;;0.00;0.00;;;17.70;99.90;;;;;;5051938;28;20959;-73
2023/09/08 00:46:58;;;;;;;2.42;0.10;;;17.60;99.90;;;;;;5053499;28;20173;-73
2023/09/08 00:49:24;;;;;;;0.00;0.00;;;17.60;99.90;;;;;;5053033;28;20577;-73
2023/09/08 00:51:50;;;;;;;0.00;0.00;;;17.50;99.90;;;;;;5053585;28;20215;-73
2023/09/08 00:54:16;;;;;;;0.00;0.00;;;17.50;99.90;;;;;;5054112;28;20184;-73
2023/09/08 00:56:42;;;;;;;0.45;0.10;;;17.50;99.90;;;;;;5053845;28;20178;-73
2023/09/08 00:59:08;;;;;;;0.10;0.10;;;17.40;99.90;;;;;;5054908;28;20236;-73
2023/09/08 01:01:34;;;;;;;0.00;0.00;;;17.30;99.90;;;;;;5053824;28;20223;-73
2023/09/08 01:04:00;;;;;;;0.00;0.00;;;17.30;99.90;;;;;;5053474;28;20239;-73
2023/09/08 01:06:27;;;;;;;0.00;0.00;;;17.30;99.90;;;;;;5053426;28;20189;-73
2023/09/08 01:08:53;;;;;;;0.00;0.00;;;17.20;99.90;;;;;;5053374;28;20182;-73
2023/09/08 01:11:20;;;;;;;0.00;0.00;;;17.10;99.90;;;;;;5054040;28;20208;-73
2023/09/08 01:13:45;;;;;;;0.00;0.00;;;17.10;99.90;;;;;;5053322;28;20621;-74
2023/09/08 01:16:11;;;;;;;0.00;0.00;;;17.00;99.90;;;;;;5049768;28;20253;-74
2023/09/08 01:18:37;;;;;;;0.00;0.00;;;17.00;99.90;;;;;;5049269;28;20571;-74
2023/09/08 01:21:42;;;;;;;0.17;0.17;;;16.90;99.90;;;;;;5051909;28;20280;-74
2023/09/08 01:24:33;;;;;;;0.00;0.00;;;16.90;99.90;;;;;;5053125;28;20173;-74
2023/09/08 01:26:59;;;;;;;0.00;0.00;;;16.80;99.90;;;;;;5053147;28;20181;-74
2023/09/08 01:29:26;;;;;;;0.00;0.00;;;16.80;99.90;;;;;;5052801;28;20177;-75
2023/09/08 01:31:52;;;;;;;0.00;0.00;;;16.80;99.90;;;;;;5052666;28;20221;-75
2023/09/08 01:34:18;;;;;;;0.00;0.00;;;16.80;99.90;;;;;;5053153;28;20180;-75
2023/09/08 01:36:45;;;;;;;0.10;0.10;;;16.70;99.90;;;;;;5052698;28;20194;-75
2023/09/08 01:39:11;;;;;;;0.00;0.00;;;16.80;99.90;;;;;;5051861;28;20561;-75
2023/09/08 01:41:36;;;;;;;0.05;0.03;;;16.70;99.90;;;;;;5051466;28;20181;-75
2023/09/08 01:44:07;;;;;;;0.00;0.00;;;16.70;99.90;;;;;;5046860;28;20198;-75
2023/09/08 01:46:33;;;;;;;0.00;0.00;;;16.70;99.90;;;;;;5052382;28;20181;-75
2023/09/08 01:48:59;;;;;;;0.00;0.00;;;16.60;99.90;;;;;;5052239;28;20660;-75
2023/09/08 01:51:25;;;;;;;0.25;0.25;;;16.60;99.90;;;;;;5051927;28;20189;-74
2023/09/08 01:53:50;;;;;;;0.00;0.00;;;16.60;99.90;;;;;;5052099;28;20184;-74
2023/09/08 01:56:16;;;;;;;0.00;0.00;;;16.60;99.90;;;;;;5052208;28;20280;-74
2023/09/08 01:58:41;;;;;;;0.22;0.22;;;16.60;99.90;;;;;;5052120;28;20219;-74
2023/09/08 02:01:07;;;;;;;0.30;0.30;;;16.60;99.90;;;;;;5034288;28;20667;-74
2023/09/08 02:03:33;;;;;;;0.03;0.03;;;16.50;99.90;;;;;;5052220;28;20220;-74
2023/09/08 02:05:58;;;;;;;0.35;0.35;;;16.50;99.90;;;;;;5052171;28;20260;-75
2023/09/08 02:08:24;;;;;;;0.00;0.00;;;16.50;99.90;;;;;;5052310;28;20176;-74
2023/09/08 02:10:49;;;;;;;0.00;0.00;;;16.50;99.90;;;;;;5052354;28;20182;-74
2023/09/08 02:13:15;;;;;;;0.00;0.00;;;16.50;99.90;;;;;;5052207;28;20208;-74
2023/09/08 02:15:40;;;;;;;0.00;0.00;;;16.50;99.90;;;;;;5052023;28;20177;-74
2023/09/08 02:18:07;;;;;;;0.00;0.00;;;16.50;99.90;;;;;;5036766;28;20192;-74
2023/09/08 02:20:32;;;;;;;0.00;0.00;;;16.50;99.90;;;;;;5052031;28;20224;-74
2023/09/08 02:23:03;;;;;;;0.00;0.00;;;16.50;99.90;;;;;;5052219;28;20276;-73
2023/09/08 02:25:29;;;;;;;0.00;0.00;;;16.40;99.90;;;;;;5052132;28;20181;-74
2023/09/08 02:27:54;;;;;;;0.15;0.15;;;16.30;99.90;;;;;;5051811;28;20284;-74
2023/09/08 02:30:20;;;;;;;0.35;0.35;;;16.20;99.90;;;;;;5051695;28;20185;-74
2023/09/08 02:32:45;;;;;;;0.00;0.00;;;16.20;99.90;;;;;;5051800;28;20551;-74
2023/09/08 02:35:11;;;;;;;0.00;0.00;;;16.10;99.90;;;;;;5051734;28;20699;-73
2023/09/08 02:37:36;;;;;;;0.00;0.00;;;16.10;99.90;;;;;;5051606;28;20194;-73
2023/09/08 02:40:03;;;;;;;0.00;0.00;;;16.00;99.90;;;;;;5051470;28;20213;-74
2023/09/08 02:42:29;;;;;;;0.00;0.00;;;16.00;99.90;;;;;;5051582;28;20185;-74
2023/09/08 02:44:54;;;;;;;0.00;0.00;;;15.90;99.90;;;;;;5051331;28;20186;-74
2023/09/08 02:47:20;;;;;;;0.00;0.00;;;15.90;99.90;;;;;;5050373;28;20532;-74
2023/09/08 02:49:45;;;;;;;0.00;0.00;;;15.90;99.90;;;;;;5051150;28;20298;-74
2023/09/08 02:52:11;;;;;;;0.00;0.00;;;15.80;99.90;;;;;;5049822;28;20182;-74
2023/09/08 02:54:36;;;;;;;0.10;0.10;;;15.80;99.90;;;;;;5051555;28;20193;-74
2023/09/08 02:57:02;;;;;;;0.00;0.00;;;15.80;99.90;;;;;;5051455;28;20784;-73
2023/09/08 02:59:27;;;;;;;0.00;0.00;;;15.80;99.90;;;;;;5051289;28;20776;-73
2023/09/08 03:01:53;;;;;;;0.00;0.00;;;15.80;99.90;;;;;;5051462;28;20177;-72
2023/09/08 03:04:18;;;;;;;0.00;0.00;;;15.80;99.90;;;;;;5051099;28;20186;-74
2023/09/08 03:06:44;;;;;;;0.00;0.00;;;15.90;99.90;;;;;;5050810;28;20621;-74
2023/09/08 03:09:09;;;;;;;0.00;0.00;;;15.90;99.90;;;;;;5050879;28;20192;-74
2023/09/08 03:11:37;;;;;;;0.00;0.00;;;15.90;99.90;;;;;;5050791;28;20188;-73
2023/09/08 03:14:02;;;;;;;0.00;0.00;;;15.90;99.90;;;;;;5050690;28;20186;-74
2023/09/08 03:16:28;;;;;;;0.00;0.00;;;15.90;99.90;;;;;;5051026;28;20192;-74
2023/09/08 03:18:53;;;;;;;0.00;0.00;;;15.90;99.90;;;;;;5050756;28;20185;-73
2023/09/08 03:21:19;;;;;;;0.00;0.00;;;15.90;99.90;;;;;;5050778;28;20190;-72
2023/09/08 03:23:46;;;;;;;0.00;0.00;;;15.90;99.90;;;;;;5050337;28;20226;-77
2023/09/08 03:26:11;;;;;;;0.10;0.10;;;15.90;99.90;;;;;;5046050;28;20179;-75
2023/09/08 03:28:38;;;;;;;0.00;0.00;;;15.90;99.90;;;;;;5050711;28;20264;-74
2023/09/08 03:31:04;;;;;;;0.50;0.50;;;15.80;99.90;;;;;;5050372;28;20224;-74
2023/09/08 03:33:30;;;;;;;0.15;0.15;;;15.80;99.90;;;;;;5051586;28;20177;-72
2023/09/08 03:35:56;;;;;;;0.00;0.00;;;15.80;99.90;;;;;;5031316;28;20633;-72
2023/09/08 03:38:22;;;;;;;0.17;0.17;;;15.90;99.90;;;;;;5038384;28;20532;-74
2023/09/08 03:40:48;;;;;;;0.00;0.00;;;15.90;99.90;;;;;;5051004;28;20595;-77
2023/09/08 03:43:13;;;;;;;0.00;0.00;;;15.90;99.90;;;;;;5050778;28;20170;-71
2023/09/08 03:45:39;;;;;;;0.10;0.10;;;15.90;99.90;;;;;;5051057;28;20216;-73
2023/09/08 03:48:05;;;;;;;0.00;0.00;;;15.90;99.90;;;;;;5050844;28;20543;-72
2023/09/08 03:50:31;;;;;;;0.00;0.00;;;15.80;99.90;;;;;;5051023;28;20651;-70
2023/09/08 03:52:56;;;;;;;0.08;0.08;;;15.80;99.90;;;;;;5050653;28;20311;-71
2023/09/08 03:55:22;;;;;;;0.00;0.00;;;15.80;99.90;;;;;;5050977;28;20181;-71
2023/09/08 03:57:47;;;;;;;0.00;0.00;;;15.70;99.90;;;;;;5049682;28;20174;-69
2023/09/08 04:00:19;;;;;;;0.00;0.00;;;15.70;99.90;;;;;;5049800;28;20221;-67
2023/09/08 04:02:45;;;;;;;0.00;0.00;;;15.60;99.90;;;;;;5049965;28;20180;-70
2023/09/08 04:05:10;;;;;;;0.00;0.00;;;15.60;99.90;;;;;;5052253;28;20173;-71
2023/09/08 04:07:36;;;;;;;0.10;0.10;;;15.60;99.90;;;;;;5054725;28;20213;-74
2023/09/08 04:10:03;;;;;;;0.00;0.00;;;15.60;99.90;;;;;;5054637;28;20178;-69
2023/09/08 04:12:28;;;;;;;0.08;0.08;;;15.50;99.90;;;;;;5054035;28;20183;-71
2023/09/08 04:14:54;;;;;;;0.00;0.00;;;15.50;99.90;;;;;;5054396;28;20264;-72
2023/09/08 04:17:19;;;;;;;0.10;0.10;;;15.60;99.90;;;;;;5051101;28;20193;-74
2023/09/08 04:19:45;;;;;;;0.20;0.20;;;15.60;99.90;;;;;;5053921;28;20208;-76
2023/09/08 04:22:10;;;;;;;0.00;0.00;;;15.50;99.90;;;;;;5063321;28;20184;-72
2023/09/08 04:24:37;;;;;;;0.20;0.20;;;15.50;99.90;;;;;;5073941;28;20189;-74
2023/09/08 04:27:03;;;;;;;0.00;0.00;;;15.50;99.90;;;;;;5054330;28;20547;-75
2023/09/08 04:29:28;;;;;;;0.00;0.00;;;15.50;99.90;;;;;;5053051;28;20527;-76
2023/09/08 04:31:54;;;;;;;0.00;0.00;;;15.50;99.90;;;;;;5053977;28;20237;-74
2023/09/08 04:34:19;;;;;;;0.00;0.00;;;15.50;99.90;;;;;;5054190;28;20220;-75
2023/09/08 04:36:45;;;;;;;0.03;0.03;;;15.50;99.90;;;;;;5053998;28;20169;-75
2023/09/08 04:39:11;;;;;;;0.00;0.00;;;15.50;99.90;;;;;;5053984;28;20246;-72
2023/09/08 04:41:37;;;;;;;0.00;0.00;;;15.50;99.90;;;;;;5052850;28;20209;-75
2023/09/08 04:44:03;;;;;;;0.00;0.00;;;15.50;99.90;;;;;;5045732;28;20189;-75
2023/09/08 04:46:29;;;;;;;0.00;0.00;;;15.40;99.90;;;;;;5052695;28;20182;-75
2023/09/08 04:48:55;;;;;;;0.00;0.00;;;15.40;99.90;;;;;;5053383;28;20543;-73
2023/09/08 04:51:20;;;;;;;0.00;0.00;;;15.40;99.90;;;;;;5053305;28;20653;-75
2023/09/08 04:53:46;;;;;;;0.00;0.00;;;15.40;99.90;;;;;;5053415;28;20519;-76
2023/09/08 04:56:13;;;;;;;0.00;0.00;;;15.40;99.90;;;;;;5053535;28;20191;-75
2023/09/08 04:58:38;;;;;;;0.00;0.00;;;15.40;99.90;;;;;;5053440;28;20228;-74
2023/09/08 05:01:05;;;;;;;0.00;0.00;;;15.40;99.90;;;;;;5053361;28;20244;-76
2023/09/08 05:03:30;;;;;;;0.00;0.00;;;15.40;99.90;;;;;;5053522;28;20244;-74
2023/09/08 05:05:56;;;;;;;0.25;0.25;;;15.30;99.90;;;;;;5053544;28;20644;-74
2023/09/08 05:08:22;;;;;;;0.15;0.15;;;15.40;99.90;;;;;;5053450;28;20535;-74
2023/09/08 05:10:47;;;;;;;0.00;0.00;;;15.40;99.90;;;;;;5052327;28;20178;-74
2023/09/08 05:13:13;;;;;;;0.00;0.00;;;15.40;99.90;;;;;;5053101;28;20625;-77
2023/09/08 05:15:42;;;;;;;0.00;0.00;;;15.40;99.90;;;;;;5051337;28;20200;-76
2023/09/08 05:18:07;;;;;;;0.00;0.00;;;15.40;99.90;;;;;;5050378;28;20702;-77
2023/09/08 05:20:33;;;;;;;0.00;0.00;;;15.40;99.90;;;;;;5053013;28;20209;-76
2023/09/08 05:22:58;;;;;;;0.00;0.00;;;15.40;99.90;;;;;;5053394;28;20223;-77
2023/09/08 05:25:24;;;;;;;0.00;0.00;;;15.50;99.90;;;;;;5051798;28;20178;-77
2023/09/08 05:27:49;;;;;;;0.00;0.00;;;15.50;99.90;;;;;;5053159;28;20245;-77
2023/09/08 05:30:15;;;;;;;0.00;0.00;;;15.60;99.90;;;;;;5053009;28;20196;-76
2023/09/08 05:32:41;;;;;;;0.00;0.00;;;15.70;99.90;;;;;;5052990;28;20220;-77
2023/09/08 05:35:06;;;;;;;0.00;0.00;;;15.80;99.90;;;;;;5052924;28;20177;-77
2023/09/08 05:37:32;;;;;;;0.00;0.00;;;15.80;99.90;;;;;;5052878;28;20228;-77
2023/09/08 05:39:57;;;;;;;0.00;0.00;;;15.80;99.90;;;;;;5052717;28;20224;-76
2023/09/08 05:42:23;;;;;;;0.00;0.00;;;15.90;99.90;;;;;;5052454;28;20522;-76
2023/09/08 05:44:48;;;;;;;0.00;0.00;;;16.00;99.90;;;;;;5052782;28;20556;-77
2023/09/08 05:47:14;;;;;;;0.00;0.00;;;16.00;99.90;;;;;;5052735;28;20224;-76
2023/09/08 05:49:40;;;;;;;0.00;0.00;;;16.10;99.90;;;;;;5052342;28;20538;-76
2023/09/08 05:52:05;;;;;;;0.00;0.00;;;16.20;99.90;;;;;;5052654;28;20178;-76
2023/09/08 05:54:31;;;;;;;0.10;0.10;;;16.30;99.90;;;;;;5052340;28;20560;-77
2023/09/08 05:56:56;;;;;;;0.00;0.00;;;16.40;99.90;;;;;;5052561;28;20268;-76
2023/09/08 05:59:22;;;;;;;0.00;0.00;;;16.60;99.90;;;;;;5052568;28;20240;-76
2023/09/08 06:01:47;;;;;;;0.00;0.00;;;16.80;99.90;;;;;;5052451;28;21043;-77
2023/09/08 06:04:13;;;;;;;0.00;0.00;;;17.10;99.90;;;;;;5052472;28;20169;-76
2023/09/08 06:06:38;;;;;;;0.00;0.00;;;17.50;99.90;;;;;;5052457;28;20181;-76
2023/09/08 06:09:07;;;;;;;0.00;0.00;;;17.90;99.90;;;;;;5052307;28;20215;-76
2023/09/08 06:11:33;;;;;;;0.00;0.00;;;18.50;99.90;;;;;;5052352;28;20193;-75
2023/09/08 06:13:59;;;;;;;0.00;0.00;;;19.00;99.90;;;;;;5052401;28;20177;-74
2023/09/08 06:16:25;;;;;;;0.00;0.00;;;19.60;99.90;;;;;;5052182;28;20234;-74
2023/09/08 06:18:50;;;;;;;0.00;0.00;;;20.10;99.90;;;;;;5052096;28;20530;-74
2023/09/08 06:21:16;;;;;;;0.00;0.00;;;20.60;99.90;;;;;;5050981;28;20186;-75
2023/09/08 06:23:41;;;;;;;0.00;0.00;;;21.10;99.90;;;;;;5050926;28;20189;-75
2023/09/08 06:26:07;;;;;;;0.00;0.00;;;21.50;99.90;;;;;;5052158;28;20178;-75
2023/09/08 06:28:33;;;;;;;0.00;0.00;;;21.90;99.90;;;;;;5051614;28;20174;-76
2023/09/08 06:30:59;;;;;;;0.00;0.00;;;22.40;99.90;;;;;;5052013;28;20244;-75
2023/09/08 06:33:24;;;;;;;0.00;0.00;;;22.80;99.90;;;;;;5052134;28;20185;-75
2023/09/08 06:35:50;;;;;;;0.00;0.00;;;23.30;99.60;;;;;;5052005;28;20215;-76
2023/09/08 06:38:16;;;;;;;0.00;0.00;;;23.70;99.20;;;;;;5051890;28;20242;-74
2023/09/08 06:40:42;;;;;;;0.05;0.05;;;24.00;98.70;;;;;;5051830;28;20648;-75
2023/09/08 06:43:08;;;;;;;0.00;0.00;;;24.30;98.20;;;;;;5045550;28;20186;-75
2023/09/08 06:45:33;;;;;;;0.00;0.00;;;24.70;97.30;;;;;;5032368;28;20185;-77
2023/09/08 06:47:59;;;;;;;0.00;0.00;;;25.10;96.70;;;;;;5014461;28;20174;-76
2023/09/08 06:50:26;;;;;;;0.00;0.00;;;25.40;95.90;;;;;;5040023;28;20534;-76
2023/09/08 06:52:51;;;;;;;0.00;0.00;;;25.80;94.80;;;;;;5051508;28;20176;-76
2023/09/08 06:55:17;;;;;;;0.00;0.00;;;26.20;93.80;;;;;;5051725;28;20295;-76
2023/09/08 06:57:44;;;;;;;0.00;0.00;;;26.50;93.50;;;;;;5051728;28;20254;-76
2023/09/08 07:00:11;;;;;;;0.00;0.00;;;26.80;92.90;;;;;;5051410;28;20300;-76
2023/09/08 07:02:37;;;;;;;0.10;0.10;;;27.20;92.00;;;;;;5051698;28;20619;-76
2023/09/08 07:05:07;;;;;;;0.00;0.00;;;27.40;91.00;;;;;;5051486;28;20533;-76
2023/09/08 07:07:36;;;;;;;0.00;0.00;;;27.70;90.40;;;;;;5051544;28;20178;-76
2023/09/08 07:10:06;;;;;;;0.00;0.00;;;28.00;89.60;;;;;;5051368;28;20200;-76
2023/09/08 07:12:31;;;;;;;0.00;0.00;;;28.30;87.50;;;;;;5051230;28;20188;-76
2023/09/08 07:14:57;;;;;;;0.00;0.00;;;28.60;86.40;;;;;;5051381;28;20178;-76
2023/09/08 07:17:23;;;;;;;0.00;0.00;;;28.80;85.60;;;;;;5051334;28;20169;-76
2023/09/08 07:19:49;;;;;;;0.00;0.00;;;29.10;85.30;;;;;;5051259;28;20235;-76
2023/09/08 07:22:15;;;;;;;0.10;0.00;;;29.40;81.60;;;;;;5051260;28;20177;-76
2023/09/08 07:24:41;;;;;;;0.00;0.00;;;29.90;79.50;;;;;;5051399;28;20177;-77
2023/09/08 07:27:06;;;;;;;0.00;0.00;;;30.10;77.80;;;;;;5051257;28;20184;-76
2023/09/08 07:29:32;;;;;;;0.00;0.00;;;30.30;77.60;;;;;;5051274;28;20536;-76
2023/09/08 07:31:58;;;;;;;0.00;0.00;;;30.50;77.10;;;;;;5051313;28;20548;-76
2023/09/08 07:34:23;;;;;;;0.00;0.00;;;30.90;75.80;;;;;;5051323;28;20182;-77
2023/09/08 07:36:49;;;;;;;0.00;0.00;;;31.20;73.80;;;;;;5051137;28;20165;-76
2023/09/08 07:39:15;;;;;;;0.00;0.00;;;31.30;72.50;;;;;;5051233;28;20213;-77
2023/09/08 07:41:40;;;;;;;0.00;0.00;;;31.50;71.30;;;;;;5055365;28;20197;-77
2023/09/08 07:44:06;;;;;;;0.00;0.00;;;31.60;71.80;;;;;;5049274;28;20177;-77
2023/09/08 07:46:32;;;;;;;0.00;0.00;;;31.80;71.00;;;;;;5055166;28;20181;-76
2023/09/08 07:48:59;;;;;;;0.00;0.00;;;32.00;69.30;;;;;;5055257;28;20246;-76
2023/09/08 07:51:25;;;;;;;0.00;0.00;;;32.30;68.30;;;;;;5055372;28;20191;-77
2023/09/08 07:53:51;;;;;;;0.00;0.00;;;32.50;66.30;;;;;;5055127;28;20228;-76
2023/09/08 07:56:16;;;;;;;0.00;0.00;;;32.60;66.50;;;;;;5055058;28;20192;-77
2023/09/08 07:58:42;;;;;;;0.00;0.00;;;32.80;64.40;;;;;;5055050;28;20260;-77
2023/09/08 08:01:07;;;;;;;0.00;0.00;;;33.00;63.00;;;;;;5053709;28;20758;-76
2023/09/08 08:03:35;;;;;;;0.00;0.00;;;33.10;62.20;;;;;;5054740;28;20176;-76
2023/09/08 08:06:00;;;;;;;0.00;0.00;;;33.20;62.20;;;;;;5054803;28;20172;-76
2023/09/08 08:08:26;;;;;;;0.00;0.00;;;33.20;61.10;;;;;;5054989;28;20502;-76
2023/09/08 08:10:52;;;;;;;0.00;0.00;;;33.10;60.30;;;;;;5054683;28;20208;-76
2023/09/08 08:13:17;;;;;;;0.00;0.00;;;33.10;59.80;;;;;;5054724;28;20633;-76
2023/09/08 08:15:44;;;;;;;0.00;0.00;;;33.10;60.80;;;;;;5054720;28;20177;-76
2023/09/08 08:18:10;;;;;;;0.20;0.20;;;33.30;60.50;;;;;;5054507;28;20184;-75
2023/09/08 08:20:36;;;;;;;0.00;0.00;;;33.50;59.60;;;;;;5054524;28;20243;-75
2023/09/08 08:23:02;;;;;;;0.00;0.00;;;33.60;59.90;;;;;;5054543;28;20197;-76
2023/09/08 08:25:28;;;;;;;0.00;0.00;;;33.80;59.10;;;;;;5054614;28;20291;-76
2023/09/08 08:27:53;;;;;;;0.10;0.10;;;33.80;59.30;;;;;;5053248;28;20173;-75
2023/09/08 08:30:19;;;;;;;0.00;0.00;;;34.00;59.20;;;;;;5054045;28;20205;-75
2023/09/08 08:32:45;;;;;;;0.00;0.00;;;34.10;59.80;;;;;;5054526;28;20644;-76
2023/09/08 08:35:11;;;;;;;0.00;0.00;;;34.20;60.30;;;;;;5054200;28;20173;-76
2023/09/08 08:37:38;;;;;;;0.00;0.00;;;34.30;57.80;;;;;;5054361;28;20235;-75
2023/09/08 08:40:05;;;;;;;0.00;0.00;;;34.40;57.90;;;;;;5054162;28;20244;-76
2023/09/08 08:42:33;;;;;;;0.00;0.00;;;34.20;58.60;;;;;;5053909;28;20169;-75
2023/09/08 08:45:00;;;;;;;0.00;0.00;;;34.20;57.10;;;;;;5038114;28;20173;-75
2023/09/08 08:47:28;;;;;;;0.00;0.00;;;34.30;59.20;;;;;;5034123;28;20761;-74
2023/09/08 08:49:56;;;;;;;0.00;0.00;;;34.40;58.60;;;;;;5037988;28;20179;-74
2023/09/08 08:52:21;;;;;;;0.00;0.00;;;34.50;58.00;;;;;;5053630;28;20181;-74
2023/09/08 08:54:47;;;;;;;0.00;0.00;;;34.60;58.00;;;;;;5054004;28;20199;-74
2023/09/08 08:57:13;;;;;;;0.10;0.10;;;34.70;58.10;;;;;;5053747;28;20268;-74
2023/09/08 08:59:41;;;;;;;0.10;0.10;;;34.70;59.20;;;;;;5053868;28;20238;-73
2023/09/08 09:02:08;;;;;;;0.00;0.00;;;34.60;58.90;;;;;;5053834;28;20180;-74
2023/09/08 09:04:37;;;;;;;0.28;0.03;;;34.50;58.80;;;;;;5053855;28;20181;-74
2023/09/08 09:07:03;;;;;;;0.03;0.03;;;34.50;57.30;;;;;;5053712;28;20508;-74
2023/09/08 09:09:29;;;;;;;0.00;0.00;;;34.50;57.00;;;;;;5053753;28;20181;-75
2023/09/08 09:11:55;;;;;;;0.00;0.00;;;34.50;57.30;;;;;;5053626;28;20640;-72
2023/09/08 09:14:22;;;;;;;0.10;0.10;;;34.60;57.30;;;;;;5053492;28;20180;-74
2023/09/08 09:16:48;;;;;;;0.15;0.15;;;34.40;57.50;;;;;;5053289;28;20196;-73
2023/09/08 09:19:27;;;;;;;0.10;0.10;;;34.30;58.00;;;;;;5053366;28;20267;-74
2023/09/08 09:21:54;;;;;;;5.88;5.32;;;34.30;58.40;;;;;;5053131;28;20234;-73
2023/09/08 09:24:33;;;;;;;2.65;2.50;;;34.30;59.50;;;;;;5053577;28;20169;-74
2023/09/08 09:27:00;;;;;;;0.13;0.13;;;34.20;58.60;;;;;;5053345;28;20271;-74
2023/09/08 09:29:27;;;;;;;0.00;0.00;;;34.20;59.90;;;;;;5053435;28;20199;-74
2023/09/08 09:32:03;;;;;;;0.00;0.00;;;34.10;58.50;;;;;;5053131;28;20217;-75
2023/09/08 09:34:28;;;;;;;0.00;0.00;;;34.20;59.00;;;;;;5053396;28;20184;-75
2023/09/08 09:36:54;;;;;;;0.10;0.00;;;34.20;60.00;;;;;;5053397;28;20196;-74
2023/09/08 09:39:20;;;;;;;0.10;0.10;;;34.20;58.30;;;;;;5052886;28;20675;-75
2023/09/08 09:41:52;;;;;;;0.00;0.00;;;34.10;57.70;;;;;;5053260;28;20268;-74
2023/09/08 09:44:18;;;;;;;0.00;0.00;;;34.10;60.90;;;;;;5042840;28;20184;-73
2023/09/08 09:46:47;;;;;;;0.00;0.00;;;34.10;58.40;;;;;;5033100;28;20185;-75
2023/09/08 09:49:16;;;;;;;0.00;0.00;;;34.20;58.70;;;;;;5032878;28;20205;-74
2023/09/08 09:51:52;;;;;;;0.10;0.10;;;34.40;58.80;;;;;;5051685;28;20190;-74
2023/09/08 09:54:18;;;;;;;0.10;0.10;;;34.20;59.10;;;;;;5052802;28;20223;-75
2023/09/08 09:56:44;;;;;;;0.00;0.00;;;33.90;60.70;;;;;;5053003;28;20675;-75
2023/09/08 09:59:12;;;;;;;0.08;0.08;;;33.90;59.40;;;;;;5052496;28;20204;-75
2023/09/08 10:01:39;;;;;;;0.00;0.00;;;34.10;59.20;;;;;;5052615;28;20185;-75
2023/09/08 10:04:05;;;;;;;0.00;0.00;;;34.20;58.70;;;;;;5052076;28;20582;-75
2023/09/08 10:06:33;;;;;;;0.00;0.00;;;34.50;58.00;;;;;;5052463;28;20177;-75
2023/09/08 10:09:01;;;;;;;0.10;0.10;;;34.50;59.60;;;;;;5052572;28;20169;-75
2023/09/08 10:11:30;;;;;;;0.10;0.03;;;34.60;57.90;;;;;;5052644;28;20196;-76
2023/09/08 10:13:59;;;;;;;0.00;0.00;;;34.50;57.30;;;;;;5052569;28;20200;-74
2023/09/08 10:16:28;;;;;;;0.08;0.08;;;34.40;58.20;;;;;;5052497;28;20667;-75
2023/09/08 10:18:57;;;;;;;0.00;0.00;;;34.40;56.90;;;;;;5052387;28;20177;-75
2023/09/08 10:21:26;;;;;;;0.10;0.10;;;34.30;57.00;;;;;;5052132;28;20680;-76
2023/09/08 10:23:59;;;;;;;0.00;0.00;;;34.00;58.70;;;;;;5052105;28;20242;-75
2023/09/08 10:26:29;;;;;;;0.10;0.10;;;34.00;57.60;;;;;;5052510;28;20636;-76
2023/09/08 10:28:57;;;;;;;0.00;0.00;;;34.00;58.10;;;;;;5052192;28;20629;-75
2023/09/08 10:31:26;;;;;;;0.00;0.00;;;34.10;57.90;;;;;;5051996;28;20304;-76
2023/09/08 10:33:56;;;;;;;0.10;0.10;;;34.00;58.90;;;;;;5051976;28;20530;-76
2023/09/08 10:36:21;;;;;;;0.00;0.00;;;33.90;58.80;;;;;;5052073;28;20169;-76
2023/09/08 10:38:49;;;;;;;0.00;0.00;;;33.90;58.40;;;;;;5052110;28;20188;-77
2023/09/08 10:41:17;;;;;;;0.22;0.10;;;34.00;59.30;;;;;;5051733;28;20212;-76
2023/09/08 10:43:54;;;;;;;0.00;0.00;;;34.20;57.90;;;;;;5046668;28;20174;-77
2023/09/08 10:46:26;;;;;;;0.00;0.00;;;34.30;56.70;;;;;;5032250;28;20215;-76
2023/09/08 10:48:54;;;;;;;0.20;0.20;;;34.20;56.80;;;;;;5032124;28;20220;-76
2023/09/08 10:51:22;;;;;;;0.00;0.00;;;34.20;57.10;;;;;;5047678;28;20177;-76
2023/09/08 10:53:50;;;;;;;0.00;0.00;;;34.20;58.10;;;;;;5051841;28;20551;-76
2023/09/08 10:56:16;;;;;;;0.00;0.00;;;34.00;57.50;;;;;;5051815;28;20173;-76
2023/09/08 10:58:43;;;;;;;0.00;0.00;;;34.00;57.30;;;;;;5051742;28;20177;-75
2023/09/08 11:01:27;;;;;;;0.00;0.00;;;34.00;57.60;;;;;;5051516;28;20224;-75
2023/09/08 11:03:53;;;;;;;0.00;0.00;;;34.10;58.40;;;;;;5051687;28;20164;-76
2023/09/08 11:06:23;;;;;;;0.00;0.00;;;33.90;57.30;;;;;;5051656;28;20180;-76
2023/09/08 11:08:52;;;;;;;0.00;0.00;;;33.90;57.00;;;;;;5051612;28;20181;-76
2023/09/08 11:11:18;;;;;;;0.00;0.00;;;34.00;56.80;;;;;;5051605;28;20219;-76
2023/09/08 11:13:47;;;;;;;0.05;0.05;;;34.10;57.30;;;;;;5051589;28;20630;-76
2023/09/08 11:16:15;;;;;;;0.00;0.00;;;34.20;56.90;;;;;;5051559;28;20196;-76
2023/09/08 11:18:42;;;;;;;0.00;0.00;;;34.20;56.90;;;;;;5051451;28;20558;-77
2023/09/08 11:21:08;;;;;;;0.00;0.00;;;34.10;56.70;;;;;;5051322;28;20227;-77
2023/09/08 11:23:34;;;;;;;0.00;0.00;;;33.90;57.30;;;;;;5051506;28;20176;-76
2023/09/08 11:26:00;;;;;;;0.00;0.00;;;33.90;57.10;;;;;;5051265;28;20535;-76
2023/09/08 11:28:28;;;;;;;0.10;0.10;;;33.80;57.50;;;;;;5050174;28;20177;-74
2023/09/08 11:30:54;;;;;;;0.00;0.00;;;33.80;57.60;;;;;;5051279;28;20221;-75
2023/09/08 11:33:27;;;;;;;0.00;0.00;;;33.70;58.60;;;;;;5051324;28;20188;-74
2023/09/08 11:35:54;;;;;;;0.20;0.10;;;33.80;57.90;;;;;;5051259;28;20526;-74
2023/09/08 11:38:26;;;;;;;0.00;0.00;;;33.90;57.10;;;;;;5051255;28;20660;-73
2023/09/08 11:40:53;;;;;;;0.00;0.00;;;34.00;57.20;;;;;;5051029;28;20232;-73
2023/09/08 11:43:19;;;;;;;0.00;0.00;;;34.10;57.10;;;;;;5048910;28;20188;-73
2023/09/08 11:45:45;;;;;;;0.00;0.00;;;34.20;56.80;;;;;;5031266;28;20544;-73
2023/09/08 11:48:10;;;;;;;0.10;0.10;;;34.30;56.60;;;;;;5031126;28;20605;-75
2023/09/08 11:50:36;;;;;;;0.00;0.00;;;34.50;57.60;;;;;;5040990;28;20169;-75
2023/09/08 11:53:02;;;;;;;0.00;0.00;;;34.50;56.10;;;;;;5051145;28;20636;-75
2023/09/08 11:55:28;;;;;;;0.00;0.00;;;34.50;55.70;;;;;;5051248;28;20185;-76
2023/09/08 11:58:00;;;;;;;0.00;0.00;;;34.40;56.00;;;;;;5051080;28;20192;-75
2023/09/08 12:00:27;;;;;;;0.00;0.00;;;34.30;56.00;;;;;;5051242;28;20244;-75
2023/09/08 12:02:53;;;;;;;0.00;0.00;;;34.30;56.00;;;;;;5050938;28;20169;-75
2023/09/08 12:05:22;;;;;;;0.00;0.00;;;34.20;56.10;;;;;;5051033;28;20212;-75
2023/09/08 12:07:53;;;;;;;0.00;0.00;;;33.90;56.30;;;;;;5050889;28;20394;-75
2023/09/08 12:10:19;;;;;;;0.00;0.00;;;33.60;56.60;;;;;;5050822;28;20169;-75
2023/09/08 12:12:45;;;;;;;0.00;0.00;;;33.50;57.30;;;;;;5050920;28;20173;-76
2023/09/08 12:15:11;;;;;;;0.00;0.00;;;33.30;57.20;;;;;;5050698;28;20205;-76
2023/09/08 12:17:47;;;;;;;0.00;0.00;;;33.10;57.10;;;;;;5050790;28;20250;-75
2023/09/08 12:20:16;;;;;;;0.00;0.00;;;32.90;57.90;;;;;;5050587;28;20210;-75
2023/09/08 12:22:51;;;;;;;0.00;0.00;;;32.90;58.00;;;;;;5051878;28;20247;-75
2023/09/08 12:25:18;;;;;;;0.00;0.00;;;32.90;58.60;;;;;;5051370;28;20177;-75
2023/09/08 12:27:45;;;;;;;0.00;0.00;;;33.00;58.00;;;;;;5055065;28;20182;-78
2023/09/08 12:30:18;;;;;;;0.00;0.00;;;33.00;57.80;;;;;;5055267;28;20178;-77
2023/09/08 12:32:47;;;;;;;0.00;0.00;;;33.10;57.40;;;;;;5055721;28;20280;-77
2023/09/08 12:35:13;;;;;;;0.00;0.00;;;33.10;57.70;;;;;;5055251;28;20177;-75
2023/09/08 12:37:39;;;;;;;0.03;0.03;;;33.00;57.40;;;;;;5054812;28;20218;-75
2023/09/08 12:40:05;;;;;;;0.00;0.00;;;32.90;57.80;;;;;;5054347;28;20209;-76
2023/09/08 12:42:30;;;;;;;0.00;0.00;;;32.80;59.20;;;;;;5054166;28;20229;-76
2023/09/08 12:44:56;;;;;;;0.00;0.00;;;33.00;59.60;;;;;;5039004;28;20184;-76